Página principal
METAR-TAF:

METAR-TAF

Aeroportos :

Aeroporto Internacional de Mehrabad

Teerã, Irão

latitude: 35-41N, longitude: 051-21E, altura: 1204 m

Observação actual do tempo

O boletim foi feito há 33 minutos, às 15:00 UTC
Vento 4 kt de sul
Temperatura 20°C
Humidade 24%
Pressão 1020 hPa
Visibilidade 10 km ou mais
Poucas nuvensa uma altura de 3500 ft

METAR: OIII 181500Z 18004KT 9999 FEW035 20/M01 Q1020 A3013 NOSIG

Hora: 19:03 (15:33 UTC)

Previsão

O boletim foi feito há 4 horas e 3 minutos, às 11:30 UTC
Previsão válida de 18 às 12 UTC a 19 às 18 UTC
Vento 10 kt de sudoeste
Visibilidade: 8000 m
Nuvens dispersasa uma altura de 3500 ft

TAF: OIII 181130Z 1812/1918 23005MPS 8000 SCT035

Observações e previsões do tempo de mais de 4000 aeroportos (mensagens METAR e TAF).

As estações disponíveis são os pontos amarelos e vermelhos sobre o mapa.

Mova o rato sobre o mapa para ver o nome da estação.

Depois clique no ponto para visualizar as observações e previsões meteorológicas.

Para alterar o mapa : clique nos botões verdes com uma cruz preta para aumentar o zoom; no botão verde com uma pitada de zoom; ou nas setas verdes para mapas adjacentes.


METAR-TAF: